Time;durP1;ratioP1;P1;durP2;ratioP2;P2;SDS_P1;SDS_P2;PMS_P1;PMS_P2;Temp;Humidity;BMP_temperature;BMP_pressure;BME280_temperature;BME280_humidity;BME280_pressure;Samples;Min_cycle;Max_cycle;Signal;HPM_P1;HPM_P2
2021/10/07 00:00:44;;;;;;;9.85;2.88;;;17.80;71.70;;;;;;5034178;28;20057;-74
2021/10/07 00:03:10;;;;;;;18.15;3.58;;;17.70;72.00;;;;;;5034091;28;20025;-74
2021/10/07 00:05:36;;;;;;;17.73;3.33;;;17.70;72.60;;;;;;5032631;28;20032;-74
2021/10/07 00:08:02;;;;;;;16.13;3.30;;;17.70;72.20;;;;;;5032948;28;20112;-75
2021/10/07 00:10:28;;;;;;;17.95;3.25;;;17.70;72.80;;;;;;5032293;28;20124;-74
2021/10/07 00:12:53;;;;;;;15.23;3.15;;;17.70;72.80;;;;;;5032479;28;20360;-74
2021/10/07 00:15:19;;;;;;;15.50;2.97;;;17.60;72.90;;;;;;5032411;28;20438;-74
2021/10/07 00:17:45;;;;;;;15.90;3.15;;;17.60;73.10;;;;;;5033570;28;20032;-74
2021/10/07 00:20:13;;;;;;;17.17;2.78;;;17.60;73.60;;;;;;5034261;28;20025;-76
2021/10/07 00:22:40;;;;;;;16.33;3.63;;;17.50;73.10;;;;;;5033780;28;20032;-74
2021/10/07 00:25:10;;;;;;;17.05;3.92;;;17.50;73.60;;;;;;5032068;28;20021;-74
2021/10/07 00:27:36;;;;;;;16.05;3.40;;;17.50;74.00;;;;;;5032276;28;20025;-75
2021/10/07 00:30:09;;;;;;;16.65;3.53;;;17.50;73.60;;;;;;5033343;28;20032;-74
2021/10/07 00:32:39;;;;;;;16.40;3.30;;;17.50;73.30;;;;;;5033323;28;20041;-75
2021/10/07 00:35:20;;;;;;;14.27;3.10;;;17.50;73.70;;;;;;5031814;28;20021;-76
2021/10/07 00:40:11;;;;;;;14.38;3.08;;;17.30;73.30;;;;;;5033469;28;20120;-76
2021/10/07 00:42:37;;;;;;;14.15;3.05;;;17.20;74.70;;;;;;5031748;28;20025;-74
2021/10/07 00:45:04;;;;;;;11.90;3.25;;;17.00;75.30;;;;;;5033177;28;20064;-75
2021/10/07 00:47:29;;;;;;;12.48;2.63;;;16.90;75.60;;;;;;5031785;28;20113;-73
2021/10/07 00:49:55;;;;;;;13.75;3.25;;;16.90;76.60;;;;;;5033221;28;20112;-74
2021/10/07 00:52:21;;;;;;;12.88;3.00;;;16.90;76.20;;;;;;5031936;28;20072;-74
2021/10/07 00:54:48;;;;;;;9.30;2.50;;;16.90;76.00;;;;;;5031769;28;20079;-75
2021/10/07 00:57:19;;;;;;;15.20;3.25;;;17.00;76.30;;;;;;5033171;28;20095;-75
2021/10/07 00:59:46;;;;;;;14.45;3.67;;;17.00;76.30;;;;;;5031648;28;20478;-75
2021/10/07 01:02:11;;;;;;;14.23;2.80;;;17.10;76.40;;;;;;5032886;28;20104;-74
2021/10/07 01:04:37;;;;;;;12.15;3.22;;;17.10;75.90;;;;;;5033129;28;20096;-74
2021/10/07 01:07:04;;;;;;;15.25;2.80;;;17.10;75.70;;;;;;5032830;28;20086;-74
2021/10/07 01:09:30;;;;;;;11.57;2.80;;;17.00;75.40;;;;;;5033044;28;20025;-75
2021/10/07 01:11:58;;;;;;;15.45;2.35;;;17.00;75.40;;;;;;5032815;28;20403;-74
2021/10/07 01:14:46;;;;;;;9.25;2.33;;;16.90;75.10;;;;;;5032846;28;20022;-75
2021/10/07 01:17:14;;;;;;;8.68;1.98;;;16.80;75.40;;;;;;5032817;28;20053;-76
2021/10/07 01:19:48;;;;;;;12.48;2.88;;;16.70;75.90;;;;;;5032777;28;20041;-75
2021/10/07 01:22:15;;;;;;;17.67;2.43;;;16.70;76.50;;;;;;5031626;28;20025;-76
2021/10/07 01:24:40;;;;;;;10.23;2.70;;;16.60;75.70;;;;;;5031506;28;20275;-74
2021/10/07 01:27:07;;;;;;;9.30;1.85;;;16.60;76.20;;;;;;5032559;28;20030;-75
2021/10/07 01:29:33;;;;;;;12.20;2.35;;;16.60;75.70;;;;;;5031453;28;20025;-75
2021/10/07 01:31:59;;;;;;;10.20;2.33;;;16.60;76.20;;;;;;5031216;28;20387;-77
2021/10/07 01:34:29;;;;;;;12.00;2.20;;;16.60;76.00;;;;;;5032611;28;20538;-74
2021/10/07 01:36:56;;;;;;;13.77;2.00;;;16.60;75.80;;;;;;5031257;28;20425;-75
2021/10/07 01:39:22;;;;;;;10.85;2.17;;;16.60;75.80;;;;;;5032494;28;20378;-75
2021/10/07 01:41:48;;;;;;;8.23;2.45;;;16.60;75.70;;;;;;5032602;28;20069;-75
2021/10/07 01:44:17;;;;;;;8.82;2.15;;;16.60;75.80;;;;;;5032739;28;20057;-74
2021/10/07 01:46:43;;;;;;;8.43;1.83;;;16.50;75.70;;;;;;5031274;28;20025;-75
2021/10/07 01:49:09;;;;;;;6.85;1.65;;;16.40;75.90;;;;;;5032608;28;20105;-74
2021/10/07 01:51:36;;;;;;;5.90;1.50;;;16.30;75.50;;;;;;5032221;28;20037;-75
2021/10/07 01:54:03;;;;;;;11.48;3.30;;;16.20;75.50;;;;;;5032595;28;20361;-75
2021/10/07 01:56:32;;;;;;;5.07;1.33;;;16.10;76.20;;;;;;5030981;28;20029;-74
2021/10/07 01:58:58;;;;;;;5.80;1.60;;;16.00;76.70;;;;;;5031117;28;20022;-77
2021/10/07 02:01:24;;;;;;;5.13;1.50;;;16.00;75.80;;;;;;5030881;28;20124;-76
2021/10/07 02:03:50;;;;;;;8.23;1.45;;;16.00;75.70;;;;;;5032138;28;20071;-76
2021/10/07 02:06:16;;;;;;;6.30;1.73;;;15.90;75.30;;;;;;5032319;28;20021;-76
2021/10/07 02:08:42;;;;;;;5.60;1.58;;;15.90;75.20;;;;;;5032379;28;20099;-75
2021/10/07 02:11:09;;;;;;;5.57;1.50;;;15.90;75.10;;;;;;5032131;28;20029;-76
2021/10/07 02:13:35;;;;;;;6.10;1.23;;;16.00;75.40;;;;;;5032272;28;20067;-75
2021/10/07 02:16:01;;;;;;;3.97;1.15;;;16.00;74.90;;;;;;5032146;28;20088;-75
2021/10/07 02:18:26;;;;;;;6.22;1.13;;;16.00;75.00;;;;;;5032586;28;20022;-76
2021/10/07 02:20:53;;;;;;;4.90;1.42;;;16.00;74.70;;;;;;5033018;28;20037;-75
2021/10/07 02:23:19;;;;;;;4.95;1.05;;;16.00;74.80;;;;;;5035182;28;20426;-76
2021/10/07 02:25:46;;;;;;;6.55;1.50;;;15.90;74.20;;;;;;5033285;28;20029;-74
2021/10/07 02:28:13;;;;;;;7.88;1.10;;;15.90;74.20;;;;;;5033045;28;20017;-75
2021/10/07 02:30:40;;;;;;;4.00;1.42;;;15.80;74.30;;;;;;5032176;28;20041;-73
2021/10/07 02:33:06;;;;;;;5.35;1.52;;;15.80;74.00;;;;;;5035759;28;20022;-76
2021/10/07 02:35:31;;;;;;;5.90;1.30;;;15.80;74.30;;;;;;5035425;28;20033;-75
2021/10/07 02:37:57;;;;;;;4.10;1.02;;;15.80;74.00;;;;;;5035401;28;20467;-75
2021/10/07 02:40:23;;;;;;;5.63;1.20;;;15.80;73.70;;;;;;5033996;28;20022;-75
2021/10/07 02:42:49;;;;;;;5.28;1.30;;;15.80;73.80;;;;;;5035412;28;20051;-75
2021/10/07 02:45:16;;;;;;;5.57;1.20;;;15.80;73.90;;;;;;5034085;28;20485;-75
2021/10/07 02:47:42;;;;;;;3.58;0.90;;;15.80;73.80;;;;;;5035375;28;20048;-75
2021/10/07 02:50:09;;;;;;;3.30;0.98;;;15.80;74.00;;;;;;5035436;28;20026;-74
2021/10/07 02:52:35;;;;;;;4.93;1.00;;;15.80;74.20;;;;;;5035831;28;20033;-75
2021/10/07 02:55:01;;;;;;;3.80;1.17;;;15.70;74.20;;;;;;5035801;28;20040;-75
2021/10/07 02:57:27;;;;;;;6.97;1.73;;;15.70;74.00;;;;;;5036107;28;20021;-75
2021/10/07 02:59:52;;;;;;;6.82;1.50;;;15.70;74.30;;;;;;5036427;28;20463;-75
2021/10/07 03:02:18;;;;;;;4.05;1.08;;;15.70;74.30;;;;;;5035128;28;20025;-75
2021/10/07 03:04:44;;;;;;;4.82;1.00;;;15.70;74.10;;;;;;5033276;28;20411;-75
2021/10/07 03:07:11;;;;;;;2.72;0.80;;;15.70;74.20;;;;;;5034931;28;20115;-76
2021/10/07 03:09:38;;;;;;;4.70;1.20;;;15.70;74.10;;;;;;5034880;28;20087;-75
2021/10/07 03:12:05;;;;;;;6.10;1.10;;;15.70;74.20;;;;;;5034852;28;20026;-75
2021/10/07 03:14:31;;;;;;;4.00;1.02;;;15.80;74.50;;;;;;5034826;28;20033;-75
2021/10/07 03:16:57;;;;;;;4.40;1.30;;;15.80;74.30;;;;;;5034418;28;20129;-75
2021/10/07 03:19:22;;;;;;;2.88;0.95;;;15.80;74.30;;;;;;5034875;28;20063;-75
2021/10/07 03:21:48;;;;;;;4.65;1.05;;;15.90;74.50;;;;;;5034757;28;20386;-76
2021/10/07 03:24:14;;;;;;;3.15;0.98;;;15.90;74.80;;;;;;5034623;28;20026;-76
2021/10/07 03:26:40;;;;;;;2.35;1.00;;;15.90;74.50;;;;;;5034700;28;20426;-76
2021/10/07 03:29:05;;;;;;;3.88;1.10;;;16.00;74.80;;;;;;5033158;28;20426;-75
2021/10/07 03:31:31;;;;;;;3.00;1.00;;;16.00;76.10;;;;;;5033040;28;20037;-74
2021/10/07 03:33:57;;;;;;;2.75;1.10;;;16.10;74.80;;;;;;5034665;28;20025;-75
2021/10/07 03:36:23;;;;;;;4.38;1.05;;;16.20;74.20;;;;;;5033004;28;20029;-74
2021/10/07 03:38:48;;;;;;;5.80;1.08;;;16.20;74.10;;;;;;5033027;28;20410;-74
2021/10/07 03:41:14;;;;;;;2.20;1.00;;;16.10;74.60;;;;;;5032945;28;20109;-75
2021/10/07 03:43:40;;;;;;;5.30;1.00;;;16.10;74.30;;;;;;5034231;28;20018;-74
2021/10/07 03:46:06;;;;;;;6.07;1.10;;;16.10;76.70;;;;;;5034249;28;20029;-75
2021/10/07 03:48:31;;;;;;;3.67;0.90;;;16.10;78.70;;;;;;5034153;28;20032;-75
2021/10/07 03:50:57;;;;;;;5.13;0.88;;;16.10;78.10;;;;;;5034011;28;20069;-74
2021/10/07 03:53:25;;;;;;;3.33;1.00;;;16.10;74.80;;;;;;5032688;28;20022;-75
2021/10/07 03:55:51;;;;;;;2.72;1.00;;;15.90;74.80;;;;;;5032441;28;20025;-75
2021/10/07 03:58:17;;;;;;;3.72;1.25;;;15.80;75.20;;;;;;5032729;28;20091;-74
2021/10/07 04:00:42;;;;;;;3.83;1.33;;;15.70;75.20;;;;;;5032624;28;20026;-75
2021/10/07 04:03:08;;;;;;;6.65;1.13;;;15.70;75.50;;;;;;5034045;28;20561;-75
2021/10/07 04:05:34;;;;;;;3.75;0.90;;;15.70;75.40;;;;;;5032342;28;20024;-76
2021/10/07 04:08:00;;;;;;;2.75;1.20;;;15.80;75.40;;;;;;5032396;28;20030;-76
2021/10/07 04:10:26;;;;;;;2.28;1.00;;;15.70;75.00;;;;;;5033683;28;20029;-74
2021/10/07 04:12:51;;;;;;;2.70;1.05;;;15.70;75.60;;;;;;5033758;28;20037;-75
2021/10/07 04:15:17;;;;;;;4.95;1.27;;;15.60;75.70;;;;;;5032048;28;20104;-75
2021/10/07 04:17:43;;;;;;;5.03;0.90;;;15.60;76.00;;;;;;5032285;28;20029;-75
2021/10/07 04:20:09;;;;;;;5.07;1.10;;;15.60;76.00;;;;;;5033540;28;20033;-75
2021/10/07 04:22:35;;;;;;;3.30;1.23;;;15.50;76.30;;;;;;5032242;28;20414;-75
2021/10/07 04:25:00;;;;;;;4.05;1.08;;;15.50;76.00;;;;;;5033520;28;20101;-74
2021/10/07 04:27:26;;;;;;;2.60;1.00;;;15.50;76.10;;;;;;5034006;28;20036;-76
2021/10/07 04:29:52;;;;;;;3.08;1.20;;;15.40;76.70;;;;;;5033197;28;20057;-75
2021/10/07 04:32:17;;;;;;;4.40;1.35;;;15.40;76.90;;;;;;5033482;28;20029;-75
2021/10/07 04:34:43;;;;;;;3.22;1.20;;;15.40;76.60;;;;;;5031926;28;20060;-75
2021/10/07 04:37:09;;;;;;;4.50;1.40;;;15.30;76.80;;;;;;5033303;28;20053;-75
2021/10/07 04:39:34;;;;;;;4.43;1.42;;;15.30;76.80;;;;;;5033334;28;20036;-75
2021/10/07 04:42:00;;;;;;;3.17;1.35;;;15.20;77.30;;;;;;5033287;28;20017;-75
2021/10/07 04:44:26;;;;;;;7.30;2.20;;;15.20;79.80;;;;;;5033005;28;20025;-75
2021/10/07 04:46:52;;;;;;;3.35;1.10;;;15.30;80.30;;;;;;5032956;28;20017;-75
2021/10/07 04:49:17;;;;;;;7.93;1.30;;;15.30;80.30;;;;;;5033095;28;20445;-76
2021/10/07 04:51:43;;;;;;;3.55;1.30;;;15.40;80.20;;;;;;5033004;28;20498;-77
2021/10/07 04:54:09;;;;;;;4.85;0.98;;;15.30;77.00;;;;;;5031275;28;20028;-75
2021/10/07 04:56:34;;;;;;;3.67;1.23;;;15.40;77.30;;;;;;5033224;28;20122;-75
2021/10/07 04:59:00;;;;;;;3.83;1.00;;;15.30;77.70;;;;;;5032999;28;20025;-75
2021/10/07 05:01:26;;;;;;;2.80;1.23;;;15.20;77.90;;;;;;5033461;28;20029;-74
2021/10/07 05:03:52;;;;;;;6.10;1.00;;;15.20;80.50;;;;;;5033050;28;20017;-76
2021/10/07 05:06:18;;;;;;;4.80;1.70;;;15.20;77.80;;;;;;5033115;28;20025;-75
2021/10/07 05:08:44;;;;;;;3.95;1.42;;;15.10;77.50;;;;;;5033152;28;20021;-76
2021/10/07 05:11:10;;;;;;;5.20;1.35;;;15.10;78.00;;;;;;5031491;28;20055;-76
2021/10/07 05:13:35;;;;;;;3.50;1.70;;;15.10;78.30;;;;;;5031729;28;20112;-75
2021/10/07 05:16:01;;;;;;;5.22;1.42;;;15.00;78.00;;;;;;5032497;28;20128;-75
2021/10/07 05:18:27;;;;;;;4.32;1.23;;;15.00;78.30;;;;;;5032876;28;20447;-74
2021/10/07 05:20:53;;;;;;;8.40;1.95;;;14.90;78.80;;;;;;5032914;28;20029;-75
2021/10/07 05:23:19;;;;;;;5.18;1.40;;;14.90;79.10;;;;;;5033133;28;20104;-74
2021/10/07 05:25:47;;;;;;;5.47;1.42;;;14.90;78.90;;;;;;5033007;28;20076;-75
2021/10/07 05:28:13;;;;;;;4.40;1.20;;;15.00;79.10;;;;;;5035646;28;20021;-75
2021/10/07 05:30:39;;;;;;;5.80;1.35;;;15.00;79.00;;;;;;5035783;28;20510;-76
2021/10/07 05:33:05;;;;;;;3.17;1.40;;;15.00;78.80;;;;;;5033123;28;20127;-75
2021/10/07 05:35:31;;;;;;;4.60;1.13;;;15.00;79.10;;;;;;5033825;28;20552;-75
2021/10/07 05:37:56;;;;;;;7.95;1.60;;;14.90;79.00;;;;;;5031167;28;20028;-77
2021/10/07 05:40:22;;;;;;;5.00;1.35;;;14.80;79.30;;;;;;5032526;28;20017;-75
2021/10/07 05:42:48;;;;;;;6.63;1.60;;;14.90;79.50;;;;;;5031149;28;20470;-73
2021/10/07 05:45:14;;;;;;;5.30;1.90;;;14.90;79.20;;;;;;5032221;28;20018;-76
2021/10/07 05:47:41;;;;;;;4.07;1.67;;;15.00;80.00;;;;;;5032422;28;20080;-74
2021/10/07 05:50:09;;;;;;;4.53;1.50;;;15.10;79.00;;;;;;5032141;28;20056;-74
2021/10/07 05:52:36;;;;;;;4.40;1.70;;;15.10;79.40;;;;;;5046339;28;20033;-75
2021/10/07 05:55:03;;;;;;;7.28;1.80;;;15.20;79.10;;;;;;5041585;28;20034;-69
2021/10/07 05:57:28;;;;;;;6.85;1.70;;;15.20;78.70;;;;;;5040688;28;20071;-69
2021/10/07 05:59:54;;;;;;;5.22;1.73;;;15.20;78.40;;;;;;5035393;28;20467;-68
2021/10/07 06:02:20;;;;;;;5.47;2.03;;;15.30;78.30;;;;;;5030853;28;20030;-68
2021/10/07 06:04:45;;;;;;;4.80;1.58;;;15.30;80.10;;;;;;5032326;28;20414;-71
2021/10/07 06:07:11;;;;;;;5.75;1.63;;;15.30;80.70;;;;;;5036488;28;20056;-70
2021/10/07 06:09:37;;;;;;;4.90;1.55;;;15.40;79.50;;;;;;5036309;28;20171;-70
2021/10/07 06:12:03;;;;;;;3.05;1.58;;;15.50;77.80;;;;;;5038129;28;20041;-69
2021/10/07 06:14:28;;;;;;;7.20;1.90;;;15.60;77.70;;;;;;5045635;28;20017;-70
2021/10/07 06:16:54;;;;;;;10.88;1.77;;;15.70;77.20;;;;;;5043671;28;20129;-69
2021/10/07 06:19:23;;;;;;;6.18;1.60;;;15.70;77.00;;;;;;5040421;28;20414;-70
2021/10/07 06:21:50;;;;;;;9.73;1.80;;;15.80;76.30;;;;;;5036019;28;20053;-70
2021/10/07 06:24:16;;;;;;;4.38;1.70;;;15.90;76.30;;;;;;5036021;28;20084;-70
2021/10/07 06:26:42;;;;;;;7.30;1.70;;;15.90;76.20;;;;;;5038613;28;20026;-70
2021/10/07 06:29:08;;;;;;;6.50;1.65;;;16.00;78.70;;;;;;5034439;28;20474;-70
2021/10/07 06:31:34;;;;;;;4.45;1.33;;;16.10;77.50;;;;;;5049063;28;20072;-69
2021/10/07 06:33:59;;;;;;;4.85;1.50;;;16.20;77.00;;;;;;5055342;28;20075;-68
2021/10/07 06:36:25;;;;;;;8.40;1.50;;;16.20;75.50;;;;;;5055566;28;20032;-69
2021/10/07 06:38:51;;;;;;;6.38;2.30;;;16.30;75.20;;;;;;5055446;28;20025;-70
2021/10/07 06:41:17;;;;;;;6.28;1.88;;;16.40;76.90;;;;;;5055067;28;20139;-69
2021/10/07 06:43:43;;;;;;;4.88;1.70;;;16.50;74.60;;;;;;5050783;28;20024;-70
2021/10/07 06:46:09;;;;;;;5.68;1.30;;;16.70;77.30;;;;;;5055185;28;20033;-71
2021/10/07 06:48:35;;;;;;;6.00;1.70;;;16.70;77.40;;;;;;5055115;28;20033;-69
2021/10/07 06:51:02;;;;;;;6.53;1.73;;;16.90;74.00;;;;;;5054827;28;20085;-70
2021/10/07 06:53:28;;;;;;;13.07;2.30;;;16.80;76.90;;;;;;5054800;28;20374;-70
2021/10/07 06:55:54;;;;;;;6.95;2.10;;;16.90;73.30;;;;;;5054829;28;20032;-70
2021/10/07 06:58:20;;;;;;;7.28;1.77;;;17.00;72.90;;;;;;5055256;28;20485;-70
2021/10/07 07:00:46;;;;;;;5.40;1.83;;;17.10;72.00;;;;;;5053650;28;20017;-70
2021/10/07 07:03:11;;;;;;;9.57;1.60;;;17.10;71.10;;;;;;5054789;28;20517;-70
2021/10/07 07:05:37;;;;;;;7.45;1.30;;;17.20;72.30;;;;;;5054886;28;20032;-72
2021/10/07 07:08:03;;;;;;;4.57;1.35;;;17.20;71.40;;;;;;5054918;28;20021;-68
2021/10/07 07:10:29;;;;;;;7.57;1.60;;;17.20;71.20;;;;;;5054780;28;20104;-68
2021/10/07 07:12:54;;;;;;;6.07;1.73;;;17.30;70.90;;;;;;5054717;28;20054;-68
2021/10/07 07:15:21;;;;;;;6.07;1.88;;;17.30;74.00;;;;;;5054518;28;20028;-68
2021/10/07 07:17:47;;;;;;;6.20;1.45;;;17.40;71.00;;;;;;5054206;28;20033;-67
2021/10/07 07:20:13;;;;;;;8.93;2.00;;;17.50;69.70;;;;;;5054390;28;20025;-68
2021/10/07 07:22:40;;;;;;;4.50;1.50;;;17.50;69.50;;;;;;5052837;28;20021;-67
2021/10/07 07:25:07;;;;;;;7.05;1.60;;;17.40;69.10;;;;;;5054119;28;20056;-67
2021/10/07 07:27:34;;;;;;;4.85;1.40;;;17.40;68.40;;;;;;5054453;28;20017;-69
2021/10/07 07:30:00;;;;;;;8.00;1.55;;;17.40;73.60;;;;;;5054265;28;20033;-67
2021/10/07 07:32:26;;;;;;;7.50;1.55;;;17.40;74.60;;;;;;5054416;28;20029;-69
2021/10/07 07:34:52;;;;;;;5.78;1.45;;;17.60;73.60;;;;;;5054389;28;20375;-68
2021/10/07 07:37:18;;;;;;;3.38;1.17;;;17.60;73.20;;;;;;5054116;28;20025;-67
2021/10/07 07:39:44;;;;;;;3.75;1.40;;;17.60;72.60;;;;;;5052737;28;20017;-67
2021/10/07 07:42:10;;;;;;;5.97;1.73;;;17.60;73.50;;;;;;5054297;28;20024;-68
2021/10/07 07:44:36;;;;;;;5.55;1.45;;;17.60;73.30;;;;;;5053971;28;20108;-69
2021/10/07 07:47:02;;;;;;;4.43;1.42;;;17.60;72.50;;;;;;5053782;28;20028;-67
2021/10/07 07:49:28;;;;;;;4.75;1.48;;;17.60;73.30;;;;;;5053936;28;20022;-68
2021/10/07 07:51:54;;;;;;;4.60;1.63;;;17.60;73.10;;;;;;5053952;28;20033;-68
2021/10/07 07:54:20;;;;;;;5.07;1.70;;;17.60;73.20;;;;;;5053799;28;20367;-69
2021/10/07 07:56:46;;;;;;;5.93;1.50;;;17.60;72.40;;;;;;5052220;28;20186;-67
2021/10/07 07:59:11;;;;;;;5.10;1.55;;;17.60;73.60;;;;;;5053590;28;20060;-67
2021/10/07 08:01:37;;;;;;;6.68;1.30;;;17.60;73.50;;;;;;5053313;28;20547;-67
2021/10/07 08:04:07;;;;;;;7.25;1.85;;;17.60;73.60;;;;;;5053471;28;20025;-68
2021/10/07 08:06:34;;;;;;;9.10;2.33;;;17.60;67.60;;;;;;5053350;28;20544;-68
2021/10/07 08:09:00;;;;;;;5.57;1.40;;;17.70;74.90;;;;;;5053849;28;20406;-69
2021/10/07 08:11:27;;;;;;;4.70;1.20;;;17.80;74.50;;;;;;5053187;28;20040;-67
2021/10/07 08:13:53;;;;;;;5.90;1.42;;;17.80;74.20;;;;;;5051912;28;20052;-68
2021/10/07 08:16:19;;;;;;;3.97;1.40;;;17.80;73.10;;;;;;5053054;28;20079;-67
2021/10/07 08:18:45;;;;;;;5.60;1.17;;;17.80;73.70;;;;;;5053066;28;20017;-68
2021/10/07 08:21:10;;;;;;;5.53;1.40;;;17.80;73.10;;;;;;5053142;28;20367;-68
2021/10/07 08:23:37;;;;;;;3.42;1.05;;;17.80;71.10;;;;;;5053233;28;20048;-68
2021/10/07 08:26:03;;;;;;;4.75;1.40;;;17.80;73.70;;;;;;5053145;28;20021;-66
2021/10/07 08:28:29;;;;;;;3.63;1.52;;;17.80;69.80;;;;;;5052592;28;20028;-68
2021/10/07 08:30:55;;;;;;;4.30;1.00;;;17.90;73.10;;;;;;5052974;28;20040;-70
2021/10/07 08:33:20;;;;;;;3.58;1.00;;;18.10;70.00;;;;;;5051507;28;20098;-67
2021/10/07 08:35:49;;;;;;;6.10;1.30;;;18.10;73.20;;;;;;5052825;28;20040;-66
2021/10/07 08:38:16;;;;;;;2.92;1.13;;;18.20;69.40;;;;;;5053370;28;20474;-67
2021/10/07 08:40:41;;;;;;;5.07;1.15;;;18.20;69.00;;;;;;5051587;28;20032;-68
2021/10/07 08:43:07;;;;;;;2.72;0.95;;;18.30;68.80;;;;;;5053047;28;20021;-68
2021/10/07 08:45:33;;;;;;;3.00;1.08;;;18.30;68.30;;;;;;5052908;28;20103;-68
2021/10/07 08:47:59;;;;;;;4.10;1.38;;;18.30;72.70;;;;;;5051697;28;20013;-68
2021/10/07 08:50:25;;;;;;;4.93;0.98;;;18.40;70.90;;;;;;5051313;28;20462;-70
2021/10/07 08:52:51;;;;;;;6.60;1.50;;;18.40;72.40;;;;;;5052555;28;20032;-67
2021/10/07 08:55:17;;;;;;;7.15;1.25;;;18.50;70.90;;;;;;5052390;28;20098;-67
2021/10/07 08:57:43;;;;;;;3.53;1.13;;;18.50;72.70;;;;;;5052601;28;20359;-67
2021/10/07 09:00:11;;;;;;;4.68;1.33;;;18.60;71.80;;;;;;5052314;28;20021;-67
2021/10/07 09:02:38;;;;;;;13.60;2.13;;;18.70;68.00;;;;;;5052248;28;20032;-67
2021/10/07 09:05:19;;;;;;;4.65;1.13;;;18.70;68.00;;;;;;5052037;28;20029;-67
2021/10/07 09:08:01;;;;;;;6.55;1.00;;;18.80;65.70;;;;;;5052127;28;20027;-67
2021/10/07 09:10:46;;;;;;;7.45;1.63;;;18.80;65.70;;;;;;5052795;28;20021;-68
2021/10/07 09:13:20;;;;;;;3.38;1.00;;;18.80;65.90;;;;;;5051515;28;20044;-67
2021/10/07 09:16:00;;;;;;;5.22;1.23;;;18.90;64.90;;;;;;5050824;28;20029;-68
2021/10/07 09:18:29;;;;;;;3.97;0.95;;;19.00;68.80;;;;;;5052151;28;20037;-67
2021/10/07 09:20:57;;;;;;;3.72;1.08;;;19.00;69.60;;;;;;5051041;28;20036;-67
2021/10/07 09:23:34;;;;;;;2.67;1.15;;;19.00;70.20;;;;;;5052293;28;20048;-67
2021/10/07 09:26:10;;;;;;;4.78;0.90;;;19.10;70.40;;;;;;5051941;28;20029;-67
2021/10/07 09:28:59;;;;;;;3.47;1.10;;;19.20;64.00;;;;;;5052327;28;20385;-68
2021/10/07 09:31:27;;;;;;;2.80;1.38;;;19.30;64.00;;;;;;5051831;28;20037;-68
2021/10/07 09:33:55;;;;;;;4.85;0.93;;;19.40;64.00;;;;;;5051929;28;20029;-69
2021/10/07 09:36:22;;;;;;;4.72;1.00;;;19.50;68.80;;;;;;5051646;28;20104;-69
2021/10/07 09:38:51;;;;;;;2.97;0.70;;;19.60;68.50;;;;;;5052001;28;20020;-66
2021/10/07 09:41:25;;;;;;;4.75;0.70;;;19.70;67.40;;;;;;5055980;28;20086;-69
2021/10/07 09:43:54;;;;;;;3.53;0.90;;;19.90;66.70;;;;;;5055854;28;20027;-70
2021/10/07 09:46:41;;;;;;;1.55;0.68;;;19.90;66.20;;;;;;5055759;28;20090;-68
2021/10/07 09:49:10;;;;;;;1.70;0.90;;;19.70;62.10;;;;;;5056094;28;20494;-68
2021/10/07 09:51:51;;;;;;;2.15;0.90;;;19.50;67.10;;;;;;5055939;28;20395;-70
2021/10/07 09:54:29;;;;;;;6.72;1.50;;;19.50;62.70;;;;;;5055513;28;20025;-71
2021/10/07 09:56:57;;;;;;;6.13;1.33;;;19.50;67.90;;;;;;5038581;28;20029;-69
2021/10/07 09:59:24;;;;;;;5.28;1.10;;;19.50;68.20;;;;;;5055609;28;20017;-69
2021/10/07 10:01:55;;;;;;;3.10;1.05;;;19.60;65.80;;;;;;5055582;28;20021;-70
2021/10/07 10:04:22;;;;;;;2.00;0.80;;;19.70;67.20;;;;;;5055978;28;20103;-71
2021/10/07 10:06:48;;;;;;;3.90;1.00;;;19.80;66.70;;;;;;5055598;28;20112;-71
2021/10/07 10:09:14;;;;;;;2.65;0.70;;;19.90;65.00;;;;;;5055858;28;20027;-68
2021/10/07 10:11:43;;;;;;;2.90;0.60;;;20.00;65.00;;;;;;5055309;28;20127;-68
2021/10/07 10:14:09;;;;;;;3.25;0.60;;;20.00;64.40;;;;;;5055589;28;20024;-67
2021/10/07 10:16:38;;;;;;;3.22;0.80;;;20.10;64.00;;;;;;5055010;28;20057;-71
2021/10/07 10:19:07;;;;;;;3.90;0.70;;;20.10;64.40;;;;;;5055454;28;20155;-70
2021/10/07 10:21:36;;;;;;;2.42;0.80;;;20.10;64.80;;;;;;5055298;28;20156;-68
2021/10/07 10:24:04;;;;;;;3.50;0.70;;;20.10;64.40;;;;;;5055081;28;20117;-70
2021/10/07 10:26:31;;;;;;;3.25;0.80;;;20.30;64.20;;;;;;5055321;28;20061;-68
2021/10/07 10:28:57;;;;;;;2.10;0.50;;;20.40;63.90;;;;;;5055147;28;20474;-69
2021/10/07 10:31:31;;;;;;;1.35;0.70;;;20.40;63.60;;;;;;5054758;28;20033;-70
2021/10/07 10:34:06;;;;;;;2.88;0.60;;;20.60;63.20;;;;;;5053675;28;20032;-69
2021/10/07 10:36:33;;;;;;;3.30;0.85;;;20.70;60.20;;;;;;5054844;28;20028;-71
2021/10/07 10:39:10;;;;;;;16.77;1.23;;;20.80;62.40;;;;;;5054925;28;20473;-70
2021/10/07 10:41:51;;;;;;;7.40;1.40;;;20.90;61.70;;;;;;5055096;28;20112;-71
2021/10/07 10:44:46;;;;;;;3.95;0.90;;;21.00;59.20;;;;;;5053297;28;20492;-73
2021/10/07 10:47:12;;;;;;;4.43;0.77;;;21.00;60.80;;;;;;5054582;28;20430;-73
2021/10/07 10:49:42;;;;;;;2.53;0.88;;;21.10;60.80;;;;;;5054666;28;20064;-72
2021/10/07 10:52:12;;;;;;;2.72;1.08;;;21.20;60.20;;;;;;5053992;28;20355;-71
2021/10/07 10:54:43;;;;;;;3.63;1.15;;;21.30;59.60;;;;;;5055160;28;20051;-72
2021/10/07 10:57:23;;;;;;;4.95;1.02;;;21.30;59.20;;;;;;5053000;28;20032;-66
2021/10/07 11:00:22;;;;;;;2.33;0.63;;;21.30;59.70;;;;;;5055041;28;20467;-69
2021/10/07 11:02:56;;;;;;;7.80;0.90;;;21.40;58.60;;;;;;5047659;28;20029;-70
2021/10/07 11:05:27;;;;;;;6.05;1.42;;;21.40;58.70;;;;;;5054766;28;20025;-69
2021/10/07 11:08:11;;;;;;;3.83;0.70;;;21.40;58.80;;;;;;5054432;28;20351;-68
2021/10/07 11:10:46;;;;;;;3.83;1.00;;;21.40;58.10;;;;;;5052819;28;20033;-71
2021/10/07 11:13:16;;;;;;;5.18;0.82;;;21.40;59.50;;;;;;5052776;28;20458;-69
2021/10/07 11:15:46;;;;;;;4.20;1.20;;;21.50;58.70;;;;;;5063533;22;20042;-67
2021/10/07 11:18:12;;;;;;;0.98;0.50;;;21.60;59.10;;;;;;5035120;28;20033;-68
2021/10/07 11:20:38;;;;;;;3.22;0.80;;;21.60;58.10;;;;;;5034972;28;20045;-67
2021/10/07 11:23:17;;;;;;;1.58;0.65;;;21.70;58.20;;;;;;5034848;28;20103;-68
2021/10/07 11:25:47;;;;;;;1.60;0.68;;;21.60;57.10;;;;;;5034317;28;20025;-70
2021/10/07 11:28:13;;;;;;;1.33;0.60;;;21.80;58.80;;;;;;5034394;28;20029;-67
2021/10/07 11:30:42;;;;;;;1.00;0.50;;;21.80;57.80;;;;;;5034358;28;20479;-68
2021/10/07 11:33:08;;;;;;;4.47;1.15;;;21.60;57.90;;;;;;5034077;28;20033;-68
2021/10/07 11:35:35;;;;;;;2.28;0.63;;;21.60;58.00;;;;;;5034188;28;20502;-69
2021/10/07 11:38:14;;;;;;;1.65;0.60;;;21.60;57.90;;;;;;5034242;28;20022;-68
2021/10/07 11:40:44;;;;;;;1.23;0.70;;;21.60;57.90;;;;;;5034251;28;20021;-68
2021/10/07 11:43:13;;;;;;;3.45;0.65;;;21.50;57.50;;;;;;5034366;28;20069;-67
2021/10/07 11:45:42;;;;;;;1.35;0.63;;;21.50;57.70;;;;;;5033966;28;20470;-67
2021/10/07 11:48:08;;;;;;;2.08;0.75;;;21.50;57.80;;;;;;5034257;28;20044;-69
2021/10/07 11:50:43;;;;;;;2.75;1.00;;;21.50;57.70;;;;;;5032452;28;20116;-68
2021/10/07 11:53:12;;;;;;;1.70;0.77;;;21.70;57.40;;;;;;5034240;28;20179;-68
2021/10/07 11:55:40;;;;;;;4.15;1.25;;;21.60;57.10;;;;;;5034066;28;20069;-70
2021/10/07 11:58:07;;;;;;;1.90;0.70;;;21.50;57.20;;;;;;5034360;28;20029;-66
2021/10/07 12:00:41;;;;;;;1.42;0.60;;;21.50;57.30;;;;;;5033945;28;20047;-69
2021/10/07 12:03:29;;;;;;;2.92;1.00;;;21.60;56.30;;;;;;5031394;28;20025;-66
2021/10/07 12:06:09;;;;;;;1.08;0.73;;;21.70;56.60;;;;;;5033934;28;20126;-66
2021/10/07 12:08:43;;;;;;;3.40;0.90;;;21.70;57.50;;;;;;5033813;28;20029;-66
2021/10/07 12:11:14;;;;;;;2.47;0.70;;;21.80;56.70;;;;;;5033879;28;20044;-66
2021/10/07 12:13:53;;;;;;;2.08;0.90;;;21.70;57.10;;;;;;5033615;28;20083;-67
2021/10/07 12:16:27;;;;;;;1.55;0.77;;;21.70;56.30;;;;;;5033456;28;20442;-67
2021/10/07 12:18:55;;;;;;;4.25;1.05;;;21.70;57.10;;;;;;5034168;28;20128;-69
2021/10/07 12:21:24;;;;;;;4.28;1.13;;;21.60;57.10;;;;;;5033737;28;20113;-71
2021/10/07 12:24:01;;;;;;;1.88;0.80;;;21.50;57.40;;;;;;5032260;28;20382;-71
2021/10/07 12:26:36;;;;;;;2.60;0.75;;;21.60;56.20;;;;;;5033301;28;20021;-69
2021/10/07 12:29:26;;;;;;;2.70;0.98;;;21.50;56.30;;;;;;5033475;28;20060;-71
2021/10/07 12:31:57;;;;;;;2.75;0.80;;;21.40;55.90;;;;;;5033649;28;20416;-70
2021/10/07 12:34:27;;;;;;;2.03;0.80;;;21.40;56.80;;;;;;5033941;28;20018;-70
2021/10/07 12:36:54;;;;;;;2.97;0.90;;;21.40;57.00;;;;;;5034261;28;20061;-72
2021/10/07 12:39:36;;;;;;;3.60;0.70;;;21.50;57.00;;;;;;5034024;28;20104;-72
2021/10/07 12:42:11;;;;;;;4.10;0.93;;;21.60;55.60;;;;;;5034714;28;20047;-72
2021/10/07 12:45:03;;;;;;;4.88;1.00;;;21.60;55.80;;;;;;5033268;28;20112;-71
2021/10/07 12:47:34;;;;;;;2.67;0.82;;;21.80;56.50;;;;;;5035047;28;20133;-72
2021/10/07 12:50:12;;;;;;;2.03;0.70;;;22.00;56.10;;;;;;5037500;28;20052;-71
2021/10/07 12:52:38;;;;;;;2.05;0.73;;;22.10;55.70;;;;;;5033690;28;20104;-71